x

Delaware Bay 26 Nm Southeast Of Cape May, Nj (44009) Wave Buoy

3:50am - Sat 26th May 2018 All times are EDT. -4 hours from GMT.

  • Sig Wave height 2.6ft
  • Swell Direction
  • Peak Period 5s
  • Average Period 4s
  • Wind
    13mph, 16mph gusts
  • Sea Temp 63°f
  • Air Temp 65°f
  • Sea Pressure 1012.8mb
  • Delaware Bay 26 Nm Southeast Of Cape May, Nj
  • Delaware Bay 26 Nm Southeast Of Cape May, Nj

More Historic Weather Station data

Upgrade to MSW Pro to gain access to the past 30 days of data for over 8000 Wavebouys and Weather Stations around the globe.

Join

Comparision Forecast

View Surf forecast
   
Sat 05/26 3:50am 2.5ft 5s 4s 13 16 mph 1012.8mb 63f 65f
2:50am 2.5ft 4s 4s 13 16 mph 1013.4mb 64f 65f
1:50am 2.5ft 4s 4s 18 20 mph 1013.7mb 64f 65f
12:50am 2.5ft 4s 4s 18 20 mph 1013.8mb 64f 65f
Fri 05/25 11:50pm 2.5ft 4s 4s 16 18 mph 1014mb 64f 65f
10:50pm 2.5ft 4s 4s 18 20 mph 1014.5mb 64f 66f
9:50pm 2.5ft 4s 4s 20 22 mph 1014.2mb 64f 66f
8:50pm 3ft 4s 4s 18 20 mph 1014.3mb 65f 66f
7:50pm 2.5ft 4s 4s 18 20 mph 1014.8mb 65f 67f
6:50pm 2.5ft 8s 4s 18 20 mph 1014.8mb 64f 67f
5:50pm 2.5ft 4s 4s 18 22 mph 1015mb 64f 67f
4:50pm 2.5ft 4s 4s 18 18 mph 1015.3mb 64f 67f
3:50pm 2.5ft 4s 4s 16 18 mph 1016mb 64f 67f
8:50am 1.6ft 9s 5s 11 11 mph 1020.2mb 62f 63f
7:50am 1.6ft 8s 5s 9 11 mph 1020.5mb 62f 63f
6:50am 1.6ft 9s 5s 7 9 mph 1020.5mb 62f 62f
5:50am 1.3ft 8s 5s 9 11 mph 1020mb 61f 62f
4:50am 1.3ft 8s 5s 7 9 mph 1019.9mb 62f 62f
3:50am 1.3ft 9s 6s 7 7 mph 1020.1mb 62f 61f
2:50am 1.3ft 8s 6s 9 9 mph 1020.4mb 62f 62f
1:50am 1.3ft 8s 6s 9 9 mph 1020.9mb 62f 62f
12:50am 1.3ft 8s 6s 7 9 mph 1021.4mb 62f 61f
Thu 05/24 11:50pm 1.6ft 8s 6s 7 7 mph 1021.7mb 62f 61f
10:50pm 1.6ft 8s 6s 7 7 mph 1022mb 62f 61f
9:50pm 1.6ft 8s 6s 7 7 mph 1021.8mb 62f 61f
8:50pm 1.6ft 8s 6s 7 9 mph 1021.5mb 62f 62f
7:50pm 1.6ft 8s 6s 11 11 mph 1020.9mb 63f 63f
6:50pm 2ft 8s 6s 9 9 mph 1021.1mb 64f 64f
5:50pm 1.6ft 8s 5s 7 7 mph 1021.3mb 65f 64f
1:50pm 2ft 8s 5s 4 4 mph 1021.9mb 64f 65f
11:50am 1.6ft 8s 5s 9 9 mph 1021.9mb 62f 63f
10:50am 1.6ft 8s 6s 7 7 mph 1021.6mb 62f 63f
9:50am 1.6ft 8s 6s 9 9 mph 1021.2mb 61f 62f
8:50am 1.6ft 8s 5s 9 9 mph 1020.8mb 61f 62f
7:50am 1.6ft 8s 5s 9 11 mph 1020.4mb 60f 63f
6:50am 2ft 8s 5s 11 13 mph 1019.8mb 60f 64f
5:50am 2ft 8s 5s 9 11 mph 1018.8mb 61f 62f
4:50am 2ft 8s 5s 9 9 mph 1018.4mb 61f 62f
3:50am 2.5ft 6s 5s 7 7 mph 1018.1mb 61f 62f
2:50am 2.5ft 8s 5s 4 7 mph 1017.9mb 60f 62f
1:50am 2.5ft 6s 5s 7 9 mph 1018mb 61f 63f
12:50am 2.5ft 5s 5s 7 9 mph 1018.1mb 61f 64f
Wed 05/23 11:50pm 2.5ft 5s 5s 7 9 mph 1018mb 62f 63f
10:50pm 2.5ft 6s 5s 11 11 mph 1017.6mb 62f 65f
9:50pm 2.5ft 6s 5s 11 11 mph 1017.2mb 62f 66f
8:50pm 2.5ft 6s 5s 11 13 mph 1016.6mb 62f 67f
7:50pm 2ft 6s 5s 11 11 mph 1016mb 63f 67f
6:50pm 2ft 6s 4s 9 9 mph 1015.5mb 62f 67f
5:50pm 2.5ft 8s 5s 13 13 mph 1014.8mb 63f 68f
4:50pm 2.5ft 6s 5s 11 13 mph 1014.9mb 62f 67f
3:50pm 2.5ft 6s 5s 11 11 mph 1015mb 62f 67f
2:50pm 2.5ft 8s 5s 11 13 mph 1015mb 63f 69f
1:50pm 2.5ft 8s 5s 2 4 mph 1015.1mb 64f 67f
12:50pm 2.5ft 5s 5s 2 4 mph 1015.1mb 65f 66f
11:50am 2ft 8s 5s 4 4 mph 1015.1mb 64f 64f
10:50am 2ft 8s 5s 4 4 mph 1014.9mb 63f 64f
9:50am 2ft 8s 5s 7 9 mph 1014.8mb 62f 62f
8:50am 1.6ft 8s 5s 9 9 mph 1014.6mb 62f 62f
7:50am 1.6ft 8s 5s 9 9 mph 1014.5mb 62f 62f
6:50am 2ft 8s 5s 9 9 mph 1014.1mb 62f 62f
5:50am 1.6ft 8s 5s 13 16 mph 1013.5mb 62f 62f
4:50am 2ft 9s 5s 4 7 mph 1014mb 63f 62f
3:50am 2ft 8s 5s 7 7 mph 1014mb 63f 62f
2:50am 2ft 8s 5s 9 9 mph 1014.1mb 63f 63f
1:50am 2.5ft 8s 5s 9 11 mph 1014.1mb 63f 63f
12:50am 2.5ft 8s 5s 11 11 mph 1014.4mb 63f 63f
Tue 05/22 11:50pm 2.5ft 8s 5s 9 11 mph 1015mb 63f 62f
10:50pm 2.5ft 8s 5s 11 13 mph 1015.7mb 63f 63f
9:50pm 2.5ft 8s 5s 11 13 mph 1016.2mb 62f 62f
8:50pm 2.5ft 8s 5s 13 13 mph 1016mb 62f 62f
7:50pm 2ft 9s 6s 11 13 mph 1016mb 60f 60f
6:50pm 2ft 8s 6s 11 13 mph 1015.9mb 60f 59f
5:50pm 2ft 8s 6s 7 7 mph 1016.4mb 61f 59f
4:50pm 2ft 8s 6s 7 9 mph 1016.4mb 60f 59f
3:50pm 2ft 8s 6s 9 11 mph 1016.9mb 61f 60f
2:50pm 2.5ft 9s 6s 7 7 mph 1018.2mb 62f 60f
1:50pm 2ft 9s 6s 4 7 mph 1019.1mb 61f 60f
12:50pm 2.5ft 8s 6s 7 7 mph 1019.7mb 60f 59f
11:50am 2.5ft 8s 6s 7 7 mph 1020.3mb 60f 58f
10:50am 2.5ft 9s 6s 7 7 mph 1020.7mb 59f 58f
9:50am 2.5ft 8s 6s 4 7 mph 1021.4mb 59f 57f